Wetterdaten: Woche 24.05.10 - 30.05.10 (KW21)
Datum Zeit Temperatur Luftfeuchte Luftdruck Niederschlag Windrichtung Sonnenschein Solar Wind
24.05.2010 00:00 11,5 C 87 % 1017,6 hPa 0,0 l/m N 0,00 h 0 W/m 0,0 km/h (0 Bft)
24.05.2010 01:00 10,6 C 90 % 1017,4 hPa 0,0 l/m N 0,00 h 0 W/m 0,0 km/h (0 Bft)
24.05.2010 02:00 10,0 C 92 % 1017,0 hPa 0,0 l/m N 0,00 h 0 W/m 0,0 km/h (0 Bft)
24.05.2010 03:00 9,6 C 91 % 1016,7 hPa 0,0 l/m N 0,00 h 0 W/m 0,0 km/h (0 Bft)
24.05.2010 04:00 9,1 C 91 % 1016,3 hPa 0,0 l/m N 0,00 h 0 W/m 0,0 km/h (0 Bft)
24.05.2010 05:00 8,5 C 91 % 1015,9 hPa 0,0 l/m N 0,08 h 9 W/m 0,0 km/h (0 Bft)
24.05.2010 06:00 8,2 C 93 % 1015,7 hPa 0,0 l/m N 0,33 h 64 W/m 0,0 km/h (0 Bft)
24.05.2010 07:00 10,1 C 93 % 1015,7 hPa 0,0 l/m N 1,00 h 241 W/m 0,0 km/h (0 Bft)
24.05.2010 08:00 14,6 C 77 % 1015,6 hPa 0,0 l/m S-SW 1,00 h 433 W/m 1,3 km/h (1 Bft)
24.05.2010 09:00 17,5 C 65 % 1015,3 hPa 0,0 l/m S 1,00 h 578 W/m 10,3 km/h (2 Bft)
24.05.2010 10:00 19,2 C 59 % 1014,9 hPa 0,0 l/m SW 1,00 h 737 W/m 9,4 km/h (2 Bft)
24.05.2010 11:00 21,1 C 52 % 1014,5 hPa 0,0 l/m S-SO 1,00 h 834 W/m 11,7 km/h (2 Bft)
24.05.2010 12:00 22,2 C 50 % 1013,9 hPa 0,0 l/m S 1,00 h 887 W/m 14,5 km/h (3 Bft)
24.05.2010 13:00 23,2 C 48 % 1013,2 hPa 0,0 l/m W 1,00 h 896 W/m 14,4 km/h (3 Bft)
24.05.2010 14:00 24,0 C 41 % 1012,5 hPa 0,0 l/m SW 1,00 h 867 W/m 17,7 km/h (3 Bft)
24.05.2010 15:00 24,5 C 39 % 1011,9 hPa 0,0 l/m W 1,00 h 773 W/m 17,3 km/h (3 Bft)
24.05.2010 16:00 24,7 C 39 % 1011,1 hPa 0,0 l/m SW 1,00 h 661 W/m 18,5 km/h (3 Bft)
24.05.2010 17:00 24,4 C 41 % 1010,6 hPa 0,0 l/m W-SW 1,00 h 498 W/m 20,5 km/h (4 Bft)
24.05.2010 18:00 24,1 C 41 % 1010,2 hPa 0,0 l/m SW 1,00 h 332 W/m 20,4 km/h (4 Bft)
24.05.2010 19:00 23,3 C 37 % 1010,1 hPa 0,0 l/m W-SW 0,25 h 88 W/m 16,4 km/h (3 Bft)
24.05.2010 20:00 21,6 C 43 % 1010,0 hPa 0,0 l/m W-SW 0,00 h 18 W/m 11,6 km/h (2 Bft)
24.05.2010 21:00 19,8 C 51 % 1010,3 hPa 0,0 l/m W 0,00 h 0 W/m 8,4 km/h (2 Bft)
24.05.2010 22:00 17,9 C 60 % 1010,7 hPa 0,0 l/m W 0,00 h 0 W/m 5,9 km/h (2 Bft)
24.05.2010 23:00 15,1 C 74 % 1010,7 hPa 0,0 l/m N 0,00 h 0 W/m 0,4 km/h (0 Bft)
25.05.2010 00:00 13,6 C 81 % 1010,8 hPa 0,0 l/m N 0,00 h 0 W/m 0,1 km/h (0 Bft)
25.05.2010 01:00 12,6 C 85 % 1010,8 hPa 0,0 l/m N 0,00 h 0 W/m 0,0 km/h (0 Bft)
25.05.2010 02:00 12,0 C 88 % 1010,9 hPa 0,0 l/m N 0,00 h 0 W/m 0,9 km/h (0 Bft)
25.05.2010 03:00 12,1 C 87 % 1011,0 hPa 0,0 l/m N 0,00 h 0 W/m 1,3 km/h (1 Bft)
25.05.2010 04:00 12,0 C 87 % 1010,6 hPa 0,0 l/m N 0,00 h 0 W/m 1,3 km/h (1 Bft)
25.05.2010 05:00 12,8 C 82 % 1010,5 hPa 0,0 l/m W-SW 0,00 h 8 W/m 6,1 km/h (2 Bft)
25.05.2010 06:00 12,6 C 83 % 1010,6 hPa 0,0 l/m S 0,17 h 52 W/m 2,7 km/h (1 Bft)
25.05.2010 07:00 15,0 C 79 % 1010,6 hPa 0,0 l/m SW 1,00 h 254 W/m 8,2 km/h (2 Bft)
25.05.2010 08:00 17,0 C 76 % 1010,5 hPa 0,0 l/m SW 0,67 h 335 W/m 12,1 km/h (2 Bft)
25.05.2010 09:00 20,0 C 60 % 1010,4 hPa 0,0 l/m W-SW 0,83 h 516 W/m 23,4 km/h (4 Bft)
25.05.2010 10:00 22,1 C 54 % 1010,3 hPa 0,0 l/m SW 1,00 h 723 W/m 21,3 km/h (4 Bft)
25.05.2010 11:00 23,5 C 50 % 1010,1 hPa 0,0 l/m SW 1,00 h 836 W/m 22,8 km/h (4 Bft)
25.05.2010 12:00 24,1 C 50 % 1009,4 hPa 0,0 l/m SW 1,00 h 875 W/m 22,9 km/h (4 Bft)
25.05.2010 13:00 24,8 C 45 % 1008,9 hPa 0,0 l/m SW 1,00 h 888 W/m 24,8 km/h (4 Bft)
25.05.2010 14:00 25,3 C 42 % 1008,3 hPa 0,0 l/m W-SW 0,67 h 738 W/m 25,3 km/h (4 Bft)
25.05.2010 15:00 24,8 C 43 % 1008,0 hPa 0,0 l/m W-SW 0,25 h 322 W/m 18,4 km/h (3 Bft)
25.05.2010 16:00 24,8 C 40 % 1007,5 hPa 0,0 l/m W 0,25 h 342 W/m 16,0 km/h (3 Bft)
25.05.2010 17:00 25,2 C 35 % 1007,1 hPa 0,0 l/m W 0,25 h 236 W/m 15,7 km/h (3 Bft)
25.05.2010 18:00 24,5 C 41 % 1006,9 hPa 0,0 l/m W-NW 0,33 h 185 W/m 6,7 km/h (2 Bft)
25.05.2010 19:00 23,6 C 47 % 1006,6 hPa 0,0 l/m N-NW 0,25 h 92 W/m 5,3 km/h (1 Bft)
25.05.2010 20:00 20,3 C 64 % 1006,6 hPa 0,0 l/m N-NW 0,00 h 28 W/m 0,7 km/h (0 Bft)
25.05.2010 21:00 18,5 C 64 % 1006,7 hPa 0,0 l/m W-SW 0,00 h 0 W/m 5,9 km/h (2 Bft)
25.05.2010 22:00 18,5 C 59 % 1006,8 hPa 0,0 l/m W 0,00 h 0 W/m 6,7 km/h (2 Bft)
25.05.2010 23:00 16,5 C 70 % 1006,6 hPa 0,0 l/m N 0,00 h 0 W/m 0,7 km/h (0 Bft)
26.05.2010 00:00 15,5 C 72 % 1006,4 hPa 0,0 l/m W 0,00 h 0 W/m 4,3 km/h (1 Bft)
26.05.2010 01:00 18,2 C 49 % 1006,6 hPa 0,0 l/m W 0,00 h 0 W/m 17,8 km/h (3 Bft)
26.05.2010 02:00 18,2 C 47 % 1006,8 hPa 0,0 l/m W-NW 0,00 h 0 W/m 15,4 km/h (3 Bft)
26.05.2010 03:00 17,7 C 49 % 1006,8 hPa 0,0 l/m W 0,00 h 0 W/m 14,1 km/h (3 Bft)
26.05.2010 04:00 16,9 C 54 % 1006,6 hPa 0,0 l/m W 0,00 h 0 W/m 10,7 km/h (2 Bft)
26.05.2010 05:00 16,1 C 63 % 1006,4 hPa 0,0 l/m SW 0,00 h 8 W/m 8,7 km/h (2 Bft)
26.05.2010 06:00 16,3 C 67 % 1006,3 hPa 0,0 l/m SW 0,00 h 26 W/m 15,7 km/h (3 Bft)
26.05.2010 07:00 16,8 C 66 % 1006,6 hPa 0,0 l/m W-SW 0,00 h 56 W/m 21,2 km/h (4 Bft)
26.05.2010 08:00 16,8 C 68 % 1006,9 hPa 0,0 l/m SW 0,00 h 114 W/m 19,7 km/h (3 Bft)
26.05.2010 09:00 16,9 C 69 % 1006,8 hPa 0,0 l/m S-SW 0,00 h 225 W/m 17,2 km/h (3 Bft)
26.05.2010 10:00 16,9 C 69 % 1006,6 hPa 0,0 l/m W-SW 0,00 h 203 W/m 18,6 km/h (3 Bft)
26.05.2010 11:00 17,2 C 64 % 1006,6 hPa 0,0 l/m W-SW 0,33 h 548 W/m 17,6 km/h (3 Bft)
26.05.2010 12:00 19,1 C 59 % 1006,3 hPa 0,0 l/m W-SW 0,33 h 487 W/m 20,1 km/h (4 Bft)
26.05.2010 13:00 21,3 C 54 % 1005,7 hPa 0,0 l/m W-NW 0,58 h 780 W/m 23,6 km/h (4 Bft)
26.05.2010 14:00 21,4 C 55 % 1005,3 hPa 0,0 l/m NW 0,58 h 525 W/m 20,4 km/h (4 Bft)
26.05.2010 15:00 21,0 C 56 % 1005,0 hPa 0,0 l/m W-NW 0,58 h 567 W/m 22,4 km/h (4 Bft)
26.05.2010 16:00 22,2 C 50 % 1004,4 hPa 0,0 l/m W-NW 0,50 h 449 W/m 18,1 km/h (3 Bft)
26.05.2010 17:00 21,8 C 52 % 1004,0 hPa 0,0 l/m SW 0,42 h 377 W/m 11,8 km/h (2 Bft)
26.05.2010 18:00 21,9 C 50 % 1003,8 hPa 0,0 l/m W-SW 0,50 h 266 W/m 12,8 km/h (3 Bft)
26.05.2010 19:00 20,8 C 53 % 1003,7 hPa 0,0 l/m W-SW 0,00 h 55 W/m 8,7 km/h (2 Bft)
26.05.2010 20:00 17,4 C 78 % 1004,0 hPa 0,2 l/m NW 0,00 h 26 W/m 5,8 km/h (1 Bft)
26.05.2010 21:00 16,3 C 77 % 1004,9 hPa 0,0 l/m SW 0,00 h 0 W/m 9,8 km/h (2 Bft)
26.05.2010 22:00 14,5 C 89 % 1006,0 hPa 2,2 l/m S-SO 0,00 h 0 W/m 5,2 km/h (1 Bft)
26.05.2010 23:00 13,3 C 94 % 1006,2 hPa 0,2 l/m S-SW 0,00 h 0 W/m 7,2 km/h (2 Bft)
27.05.2010 00:00 13,0 C 96 % 1006,3 hPa 0,4 l/m SW 0,00 h 0 W/m 15,2 km/h (3 Bft)
27.05.2010 01:00 12,9 C 96 % 1006,2 hPa 0,2 l/m SW 0,00 h 0 W/m 11,2 km/h (2 Bft)
27.05.2010 02:00 13,0 C 96 % 1006,0 hPa 0,0 l/m SW 0,00 h 0 W/m 12,6 km/h (3 Bft)
27.05.2010 03:00 12,9 C 95 % 1005,8 hPa 0,0 l/m SW 0,00 h 0 W/m 10,7 km/h (2 Bft)
27.05.2010 04:00 12,9 C 94 % 1005,5 hPa 0,0 l/m SW 0,00 h 0 W/m 12,8 km/h (3 Bft)
27.05.2010 05:00 12,9 C 94 % 1005,5 hPa 0,0 l/m W-SW 0,00 h 0 W/m 12,5 km/h (3 Bft)
27.05.2010 06:00 12,8 C 95 % 1005,7 hPa 0,2 l/m W-SW 0,00 h 13 W/m 14,0 km/h (3 Bft)
27.05.2010 07:00 12,8 C 94 % 1006,0 hPa 0,0 l/m W-SW 0,00 h 63 W/m 13,4 km/h (3 Bft)
27.05.2010 08:00 13,1 C 92 % 1006,6 hPa 0,0 l/m W-SW 0,00 h 117 W/m 14,0 km/h (3 Bft)
27.05.2010 09:00 13,9 C 89 % 1007,1 hPa 0,0 l/m W-SW 0,00 h 215 W/m 16,4 km/h (3 Bft)
27.05.2010 10:00 15,2 C 83 % 1007,1 hPa 0,0 l/m W-SW 0,25 h 335 W/m 15,7 km/h (3 Bft)
27.05.2010 11:00 15,8 C 80 % 1007,1 hPa 0,0 l/m W-SW 0,17 h 379 W/m 17,2 km/h (3 Bft)
27.05.2010 12:00 15,9 C 79 % 1007,1 hPa 2,8 l/m W 0,17 h 277 W/m 16,5 km/h (3 Bft)
27.05.2010 13:00 13,6 C 92 % 1007,3 hPa 0,6 l/m S-SW 0,00 h 151 W/m 8,2 km/h (2 Bft)
27.05.2010 14:00 13,2 C 92 % 1007,7 hPa 2,4 l/m W 0,00 h 150 W/m 8,4 km/h (2 Bft)
27.05.2010 15:00 13,3 C 94 % 1008,2 hPa 0,0 l/m S-SW 0,08 h 291 W/m 11,5 km/h (2 Bft)
27.05.2010 16:00 13,7 C 92 % 1008,5 hPa 2,2 l/m SW 0,00 h 112 W/m 8,3 km/h (2 Bft)
27.05.2010 17:00 13,7 C 94 % 1008,8 hPa 1,8 l/m S 0,42 h 331 W/m 7,9 km/h (2 Bft)
27.05.2010 18:00 14,9 C 88 % 1008,8 hPa 0,0 l/m S-SO 0,17 h 103 W/m 4,9 km/h (1 Bft)
27.05.2010 19:00 12,9 C 93 % 1009,6 hPa 4,4 l/m N-NO 0,00 h 46 W/m 9,0 km/h (2 Bft)
27.05.2010 20:00 12,3 C 96 % 1009,8 hPa 0,0 l/m N-NO 0,00 h 21 W/m 1,3 km/h (1 Bft)
27.05.2010 21:00 12,1 C 97 % 1010,3 hPa 0,0 l/m N-NO 0,00 h 0 W/m 1,9 km/h (1 Bft)
27.05.2010 22:00 11,8 C 97 % 1010,9 hPa 0,0 l/m N-NO 0,00 h 0 W/m 1,1 km/h (0 Bft)
27.05.2010 23:00 11,6 C 98 % 1010,7 hPa 0,0 l/m N-NO 0,00 h 0 W/m 1,5 km/h (1 Bft)
28.05.2010 00:00 11,3 C 98 % 1010,8 hPa 0,0 l/m N 0,00 h 0 W/m 0,4 km/h (0 Bft)
28.05.2010 01:00 10,9 C 98 % 1010,7 hPa 0,0 l/m N 0,00 h 0 W/m 0,1 km/h (0 Bft)
28.05.2010 02:00 10,9 C 98 % 1010,7 hPa 0,0 l/m N 0,00 h 0 W/m 0,0 km/h (0 Bft)
28.05.2010 03:00 10,4 C 98 % 1010,5 hPa 0,0 l/m N 0,00 h 0 W/m 0,3 km/h (0 Bft)
28.05.2010 04:00 9,8 C 99 % 1010,5 hPa 0,0 l/m N 0,00 h 0 W/m 0,4 km/h (0 Bft)
28.05.2010 05:00 9,6 C 99 % 1010,5 hPa 0,0 l/m N 0,00 h 11 W/m 0,4 km/h (0 Bft)
28.05.2010 06:00 9,8 C 99 % 1010,8 hPa 0,0 l/m N 0,33 h 66 W/m 0,1 km/h (0 Bft)
28.05.2010 07:00 11,0 C 99 % 1011,4 hPa 0,0 l/m N 0,42 h 203 W/m 2,5 km/h (1 Bft)
28.05.2010 08:00 13,2 C 95 % 1011,5 hPa 0,0 l/m SO 0,50 h 321 W/m 5,9 km/h (2 Bft)
28.05.2010 09:00 15,8 C 83 % 1011,9 hPa 0,0 l/m SW 1,00 h 575 W/m 11,1 km/h (2 Bft)
28.05.2010 10:00 17,0 C 77 % 1012,1 hPa 0,0 l/m W-SW 0,83 h 523 W/m 13,6 km/h (3 Bft)
28.05.2010 11:00 18,0 C 65 % 1012,2 hPa 0,0 l/m W-SW 0,75 h 579 W/m 14,5 km/h (3 Bft)
28.05.2010 12:00 18,2 C 62 % 1012,2 hPa 0,0 l/m W-SW 0,33 h 429 W/m 17,0 km/h (3 Bft)
28.05.2010 13:00 20,2 C 58 % 1011,7 hPa 0,0 l/m W 1,00 h 1027 W/m 17,4 km/h (3 Bft)
28.05.2010 14:00 18,4 C 63 % 1011,8 hPa 0,0 l/m NW 0,50 h 556 W/m 20,3 km/h (4 Bft)
28.05.2010 15:00 18,0 C 61 % 1011,9 hPa 0,0 l/m W 0,67 h 491 W/m 18,0 km/h (3 Bft)
28.05.2010 16:00 19,6 C 53 % 1011,8 hPa 0,0 l/m W-NW 0,67 h 497 W/m 14,6 km/h (3 Bft)
28.05.2010 17:00 17,4 C 70 % 1012,3 hPa 0,4 l/m N-NW 0,33 h 242 W/m 13,8 km/h (3 Bft)
28.05.2010 18:00 16,1 C 81 % 1012,6 hPa 0,0 l/m N-NW 0,08 h 134 W/m 7,6 km/h (2 Bft)
28.05.2010 19:00 14,9 C 83 % 1013,7 hPa 0,0 l/m N 0,00 h 21 W/m 15,2 km/h (3 Bft)
28.05.2010 20:00 13,5 C 91 % 1014,7 hPa 1,2 l/m N-NO 0,25 h 26 W/m 7,2 km/h (2 Bft)
28.05.2010 21:00 12,9 C 94 % 1015,5 hPa 0,0 l/m N 0,00 h 5 W/m 1,3 km/h (1 Bft)
28.05.2010 22:00 11,8 C 97 % 1016,2 hPa 0,0 l/m N 0,00 h 0 W/m 0,4 km/h (0 Bft)
28.05.2010 23:00 11,8 C 97 % 1016,4 hPa 0,0 l/m N 0,00 h 0 W/m 0,7 km/h (0 Bft)
29.05.2010 00:00 11,9 C 97 % 1016,6 hPa 0,0 l/m N 0,00 h 0 W/m 0,5 km/h (0 Bft)
29.05.2010 01:00 11,9 C 98 % 1016,8 hPa 0,0 l/m N 0,00 h 0 W/m 1,1 km/h (0 Bft)
29.05.2010 02:00 12,0 C 97 % 1016,7 hPa 0,0 l/m N 0,00 h 0 W/m 0,0 km/h (0 Bft)
29.05.2010 03:00 12,0 C 97 % 1016,6 hPa 0,0 l/m N 0,00 h 0 W/m 1,2 km/h (1 Bft)
29.05.2010 04:00 11,9 C 97 % 1016,3 hPa 0,2 l/m N 0,00 h 0 W/m 0,5 km/h (0 Bft)
29.05.2010 05:00 11,7 C 98 % 1016,6 hPa 0,0 l/m N 0,00 h 5 W/m 2,3 km/h (1 Bft)
29.05.2010 06:00 11,8 C 98 % 1016,6 hPa 0,0 l/m N 0,00 h 29 W/m 0,5 km/h (0 Bft)
29.05.2010 07:00 12,4 C 97 % 1016,7 hPa 0,0 l/m N 0,50 h 179 W/m 3,9 km/h (1 Bft)
29.05.2010 08:00 13,9 C 88 % 1016,7 hPa 0,0 l/m O 0,83 h 406 W/m 7,5 km/h (2 Bft)
29.05.2010 09:00 15,2 C 81 % 1016,8 hPa 0,0 l/m O-SO 0,83 h 579 W/m 7,2 km/h (2 Bft)
29.05.2010 10:00 16,5 C 73 % 1016,6 hPa 0,0 l/m O 0,92 h 721 W/m 8,6 km/h (2 Bft)
29.05.2010 11:00 17,8 C 67 % 1016,4 hPa 0,0 l/m N-NO 0,75 h 730 W/m 8,7 km/h (2 Bft)
29.05.2010 12:00 19,0 C 60 % 1016,0 hPa 0,0 l/m SO 1,00 h 792 W/m 9,3 km/h (2 Bft)
29.05.2010 13:00 19,8 C 53 % 1015,5 hPa 0,0 l/m O-SO 0,83 h 858 W/m 8,6 km/h (2 Bft)
29.05.2010 14:00 20,3 C 50 % 1014,8 hPa 0,0 l/m N-NW 0,50 h 641 W/m 7,6 km/h (2 Bft)
29.05.2010 15:00 21,2 C 48 % 1014,1 hPa 0,0 l/m NW 0,83 h 736 W/m 9,9 km/h (2 Bft)
29.05.2010 16:00 22,0 C 47 % 1013,6 hPa 0,0 l/m W-SW 1,00 h 764 W/m 14,2 km/h (3 Bft)
29.05.2010 17:00 20,9 C 49 % 1013,4 hPa 0,0 l/m W-SW 0,17 h 270 W/m 14,0 km/h (3 Bft)
29.05.2010 18:00 18,0 C 61 % 1013,6 hPa 0,0 l/m N 0,33 h 199 W/m 11,2 km/h (2 Bft)
29.05.2010 19:00 17,5 C 62 % 1013,5 hPa 0,0 l/m N-NO 0,00 h 87 W/m 9,7 km/h (2 Bft)
29.05.2010 20:00 16,4 C 67 % 1013,6 hPa 0,0 l/m N-NO 0,00 h 19 W/m 4,0 km/h (1 Bft)
29.05.2010 21:00 15,4 C 76 % 1013,9 hPa 0,0 l/m SW 0,00 h 0 W/m 2,7 km/h (1 Bft)
29.05.2010 22:00 14,4 C 84 % 1014,3 hPa 0,2 l/m S-SW 0,00 h 0 W/m 3,5 km/h (1 Bft)
29.05.2010 23:00 13,6 C 87 % 1014,0 hPa 0,0 l/m S-SW 0,00 h 0 W/m 7,8 km/h (2 Bft)
30.05.2010 00:00 13,0 C 90 % 1013,7 hPa 0,0 l/m S-SW 0,00 h 0 W/m 9,6 km/h (2 Bft)
30.05.2010 01:00 12,2 C 92 % 1013,1 hPa 0,0 l/m SW 0,00 h 0 W/m 12,0 km/h (2 Bft)
30.05.2010 02:00 12,1 C 91 % 1012,4 hPa 0,0 l/m SW 0,00 h 0 W/m 12,6 km/h (3 Bft)
30.05.2010 03:00 11,9 C 90 % 1011,4 hPa 0,0 l/m SW 0,00 h 0 W/m 9,3 km/h (2 Bft)
30.05.2010 04:00 11,9 C 92 % 1011,0 hPa 1,0 l/m W-SW 0,00 h 0 W/m 10,3 km/h (2 Bft)
30.05.2010 05:00 11,5 C 95 % 1010,5 hPa 2,2 l/m SW 0,00 h 0 W/m 9,7 km/h (2 Bft)
30.05.2010 06:00 11,4 C 97 % 1010,3 hPa 1,6 l/m SW 0,00 h 14 W/m 11,6 km/h (2 Bft)
30.05.2010 07:00 11,6 C 97 % 1010,2 hPa 3,0 l/m SW 0,00 h 23 W/m 15,6 km/h (3 Bft)
30.05.2010 08:00 12,0 C 97 % 1009,9 hPa 0,2 l/m W-SW 0,00 h 104 W/m 15,0 km/h (3 Bft)
30.05.2010 09:00 12,6 C 97 % 1009,7 hPa 1,4 l/m SW 0,00 h 139 W/m 14,8 km/h (3 Bft)
30.05.2010 10:00 13,1 C 96 % 1009,5 hPa 0,4 l/m SW 0,00 h 206 W/m 17,6 km/h (3 Bft)
30.05.2010 11:00 14,4 C 92 % 1009,2 hPa 0,0 l/m W-SW 0,58 h 437 W/m 28,6 km/h (4 Bft)
30.05.2010 12:00 14,4 C 92 % 1008,9 hPa 0,2 l/m SW 0,00 h 228 W/m 21,6 km/h (4 Bft)
30.05.2010 13:00 14,1 C 94 % 1008,9 hPa 3,8 l/m W 0,33 h 414 W/m 17,8 km/h (3 Bft)
30.05.2010 14:00 17,1 C 81 % 1008,2 hPa 0,0 l/m W 0,75 h 847 W/m 24,3 km/h (4 Bft)
30.05.2010 15:00 17,8 C 64 % 1008,0 hPa 0,0 l/m W 0,83 h 753 W/m 37,7 km/h (5 Bft)
30.05.2010 16:00 17,9 C 63 % 1008,0 hPa 0,0 l/m W-SW 0,33 h 434 W/m 28,3 km/h (4 Bft)
30.05.2010 17:00 16,8 C 73 % 1008,2 hPa 0,0 l/m W 0,08 h 224 W/m 28,0 km/h (4 Bft)
30.05.2010 18:00 15,8 C 74 % 1008,4 hPa 0,0 l/m W 0,42 h 238 W/m 23,6 km/h (4 Bft)
30.05.2010 19:00 15,1 C 72 % 1008,6 hPa 0,0 l/m W-SW 0,00 h 78 W/m 22,8 km/h (4 Bft)
30.05.2010 20:00 14,0 C 75 % 1008,5 hPa 0,0 l/m W-SW 0,00 h 19 W/m 21,4 km/h (4 Bft)
30.05.2010 21:00 13,0 C 79 % 1008,5 hPa 0,0 l/m W-SW 0,00 h 5 W/m 14,2 km/h (3 Bft)
30.05.2010 22:00 12,8 C 76 % 1008,5 hPa 0,0 l/m W 0,00 h 0 W/m 17,7 km/h (3 Bft)
30.05.2010 23:00 12,2 C 83 % 1008,1 hPa 0,2 l/m W-SW 0,00 h 0 W/m 14,1 km/h (3 Bft)
Min-Datum _ 24.05.10 25.05.10 26.05.10 - - - - 24.05.10
_ Min-Zeit 06:25 17:05 19:50 - - - - 00:00
Minimum _ 8,1 C 32 % 1003,5 hPa - - - - 0,0 km/h (0 Bft)
Max-Datum _ 25.05.10 28.05.10 24.05.10 27.05.10 - 24.05.10 30.05.10 30.05.10
_ Max-Zeit 17:05 04:20 00:00 19:15 - 05:45 14:40 15:45
Maximum _ 26,2 C 99 % 1017,7 hPa 4,4 l/m - 0,08 h 1167 W/m 49,9 km/h
W (6 Bft)
Durchschnitt _ 15,9 C 75 % 1010,5 hPa #33,6 l/m W-SW #45:55 h 344 W/m 10,7 km/h (2 Bft)